Time;durP1;ratioP1;P1;durP2;ratioP2;P2;SDS_P1;SDS_P2;PMS_P1;PMS_P2;Temp;Humidity;BMP_temperature;BMP_pressure;BME280_temperature;BME280_humidity;BME280_pressure;Samples;Min_cycle;Max_cycle;Signal;HPM_P1;HPM_P2
2022/08/02 00:04:57;;;;;;;;;;;;;;;;;;10501279;28;19924;-67
2022/08/02 00:09:59;;;;;;;;;;;;;;;;;;10522904;28;20398;-67
2022/08/02 00:15:01;;;;;;;;;;;;;;;;;;10541225;28;19931;-67
2022/08/02 00:20:03;;;;;;;;;;;;;;;;;;10541413;28;20294;-67
2022/08/02 00:25:05;;;;;;;;;;;;;;;;;;10542431;28;19931;-67
2022/08/02 00:30:07;;;;;;;;;;;;;;;;;;10515716;28;19924;-67
2022/08/02 00:35:09;;;;;;;;;;;;;;;;;;10503632;28;19932;-67
2022/08/02 00:40:11;;;;;;;;;;;;;;;;;;10499258;28;19924;-67
2022/08/02 00:45:13;;;;;;;;;;;;;;;;;;10482081;28;19925;-67
2022/08/02 00:50:15;;;;;;;;;;;;;;;;;;10518343;28;19924;-67
2022/08/02 00:55:17;;;;;;;;;;;;;;;;;;10539660;28;19924;-67
2022/08/02 01:00:19;;;;;;;;;;;;;;;;;;10540689;28;19928;-67
2022/08/02 01:05:21;;;;;;;;;;;;;;;;;;10506560;28;19924;-67
2022/08/02 01:10:24;;;;;;;;;;;;;;;;;;10498383;28;19932;-68
2022/08/02 01:15:26;;;;;;;;;;;;;;;;;;10499828;28;19932;-67
2022/08/02 01:20:36;;;;;;;;;;;;;;;;;;10498319;28;19970;-67
2022/08/02 01:25:39;;;;;;;;;;;;;;;;;;10498166;28;20375;-67
2022/08/02 01:30:41;;;;;;;;;;;;;;;;;;10515227;28;19924;-67
2022/08/02 01:35:43;;;;;;;;;;;;;;;;;;10538360;28;19933;-67
2022/08/02 01:40:48;;;;;;;;;;;;;;;;;;10540552;28;19931;-67
2022/08/02 01:45:50;;;;;;;;;;;;;;;;;;10540097;28;19940;-67
2022/08/02 01:50:52;;;;;;;;;;;;;;;;;;10519105;28;19928;-67
2022/08/02 01:55:54;;;;;;;;;;;;;;;;;;10475395;28;19929;-67
2022/08/02 02:00:58;;;;;;;;;;;;;;;;;;10559204;28;19932;-67
2022/08/02 02:06:00;;;;;;;;;;;;;;;;;;10581907;28;19977;-67
2022/08/02 02:11:02;;;;;;;;;;;;;;;;;;10580858;28;19924;-67
2022/08/02 02:16:26;;;;;;;;;;;;;;;;;;10579357;28;20264;-67
2022/08/02 02:21:28;;;;;;;;;;;;;;;;;;10581650;28;19931;-67
2022/08/02 02:26:30;;;;;;;;;;;;;;;;;;10564567;28;20383;-67
2022/08/02 02:31:32;;;;;;;;;;;;;;;;;;10539321;28;19930;-67
2022/08/02 02:36:34;;;;;;;;;;;;;;;;;;10540287;28;19924;-67
2022/08/02 02:41:37;;;;;;;;;;;;;;;;;;10543451;28;19924;-67
2022/08/02 02:46:39;;;;;;;;;;;;;;;;;;10546402;28;19924;-67
2022/08/02 02:51:41;;;;;;;;;;;;;;;;;;10546319;28;19924;-67
2022/08/02 02:56:43;;;;;;;;;;;;;;;;;;10578692;28;19930;-67
2022/08/02 03:01:45;;;;;;;;;;;;;;;;;;10569363;28;20286;-67
2022/08/02 03:06:57;;;;;;;;;;;;;;;;;;10545675;28;19924;-67
2022/08/02 03:11:59;;;;;;;;;;;;;;;;;;10574358;28;19931;-67
2022/08/02 03:17:01;;;;;;;;;;;;;;;;;;10585085;28;20385;-67
2022/08/02 03:22:03;;;;;;;;;;;;;;;;;;10564781;28;19932;-67
2022/08/02 03:27:05;;;;;;;;;;;;;;;;;;10544948;28;20014;-67
2022/08/02 03:32:07;;;;;;;;;;;;;;;;;;10544095;28;20382;-68
2022/08/02 03:37:09;;;;;;;;;;;;;;;;;;10526894;28;19935;-67
2022/08/02 03:42:11;;;;;;;;;;;;;;;;;;10543782;28;19924;-67
2022/08/02 03:47:16;;;;;;;;;;;;;;;;;;10544028;28;19949;-67
2022/08/02 03:52:18;;;;;;;;;;;;;;;;;;10583794;28;19930;-67
2022/08/02 03:57:20;;;;;;;;;;;;;;;;;;10555552;28;19928;-68
2022/08/02 04:02:22;;;;;;;;;;;;;;;;;;10505931;28;20275;-67
2022/08/02 04:07:24;;;;;;;;;;;;;;;;;;10501295;28;19924;-67
2022/08/02 04:12:46;;;;;;;;;;;;;;;;;;10501025;28;20038;-67
2022/08/02 04:17:48;;;;;;;;;;;;;;;;;;10502781;23;20338;-62
2022/08/02 04:22:50;;;;;;;;;;;;;;;;;;10500952;28;19925;-62
2022/08/02 04:27:52;;;;;;;;;;;;;;;;;;10500424;28;19932;-62
2022/08/02 04:33:14;;;;;;;;;;;;;;;;;;10500298;28;19925;-62
2022/08/02 04:38:16;;;;;;;;;;;;;;;;;;10499689;28;19932;-62
2022/08/02 04:43:18;;;;;;;;;;;;;;;;;;10499130;28;20371;-62
2022/08/02 04:48:20;;;;;;;;;;;;;;;;;;10499333;28;19932;-62
2022/08/02 04:53:23;;;;;;;;;;;;;;;;;;10499484;28;19924;-62
2022/08/02 04:58:25;;;;;;;;;;;;;;;;;;10498576;28;19925;-62
2022/08/02 05:03:42;;;;;;;;;;;;;;;;;;10498726;28;20425;-62
2022/08/02 05:08:44;;;;;;;;;;;;;;;;;;10481401;28;19924;-62
2022/08/02 05:13:46;;;;;;;;;;;;;;;;;;10498647;28;19932;-62
2022/08/02 05:18:58;;;;;;;;;;;;;;;;;;10416496;28;19929;-62
2022/08/02 05:24:00;;;;;;;;;;;;;;;;;;10416198;28;19935;-62
2022/08/02 05:29:03;;;;;;;;;;;;;;;;;;10428464;28;19931;-62
2022/08/02 05:34:05;;;;;;;;;;;;;;;;;;10497760;28;19932;-62
2022/08/02 05:39:12;;;;;;;;;;;;;;;;;;10498318;28;19930;-62
2022/08/02 05:44:19;;;;;;;;;;;;;;;;;;10498497;28;19931;-62
2022/08/02 05:49:21;;;;;;;;;;;;;;;;;;10497593;28;19929;-62
2022/08/02 05:54:23;;;;;;;;;;;;;;;;;;10491947;28;20019;-63
2022/08/02 05:59:26;;;;;;;;;;;;;;;;;;10496164;28;20287;-63
2022/08/02 06:04:29;;;;;;;;;;;;;;;;;;10495735;28;19931;-64
2022/08/02 06:09:31;;;;;;;;;;;;;;;;;;10498045;28;19928;-63
2022/08/02 06:14:33;;;;;;;;;;;;;;;;;;10496852;28;19946;-63
2022/08/02 06:19:35;;;;;;;;;;;;;;;;;;10471948;28;19932;-63
2022/08/02 06:24:52;;;;;;;;;;;;;;;;;;10504017;28;20379;-63
2022/08/02 06:29:54;;;;;;;;;;;;;;;;;;10504693;28;19926;-63
2022/08/02 06:34:56;;;;;;;;;;;;;;;;;;10498621;28;19924;-63
2022/08/02 06:39:58;;;;;;;;;;;;;;;;;;10504304;28;19931;-63
2022/08/02 06:45:00;;;;;;;;;;;;;;;;;;10503564;28;20387;-63
2022/08/02 06:50:03;;;;;;;;;;;;;;;;;;10503303;28;20279;-63
2022/08/02 06:55:05;;;;;;;;;;;;;;;;;;10504233;28;19971;-63
2022/08/02 07:00:08;;;;;;;;;;;;;;;;;;10503095;28;19924;-63
2022/08/02 07:05:10;;;;;;;;;;;;;;;;;;10502786;28;20026;-63
2022/08/02 07:10:12;;;;;;;;;;;;;;;;;;10502556;28;20272;-64
2022/08/02 07:15:15;;;;;;;;;;;;;;;;;;10502522;28;19924;-63
2022/08/02 07:20:17;;;;;;;;;;;;;;;;;;10502884;28;19924;-63
2022/08/02 07:25:19;;;;;;;;;;;;;;;;;;10502079;28;20307;-64
2022/08/02 07:30:21;;;;;;;;;;;;;;;;;;10502343;28;19928;-64
2022/08/02 07:35:23;;;;;;;;;;;;;;;;;;10502178;28;19924;-64
2022/08/02 07:40:25;;;;;;;;;;;;;;;;;;10501938;28;19924;-64
2022/08/02 07:45:27;;;;;;;;;;;;;;;;;;10501277;28;19929;-64
2022/08/02 07:50:30;;;;;;;;;;;;;;;;;;10501207;28;19924;-64
2022/08/02 07:55:32;;;;;;;;;;;;;;;;;;10500896;28;20302;-64
2022/08/02 08:00:41;;;;;;;;;;;;;;;;;;10500972;28;19924;-64
2022/08/02 08:05:43;;;;;;;;;;;;;;;;;;10500857;28;20367;-69
2022/08/02 08:10:45;;;;;;;;;;;;;;;;;;10500663;28;20394;-70
2022/08/02 08:15:47;;;;;;;;;;;;;;;;;;10500559;28;19925;-70
2022/08/02 08:20:52;;;;;;;;;;;;;;;;;;10500799;28;19924;-70
2022/08/02 08:25:54;;;;;;;;;;;;;;;;;;10500174;28;20379;-70
2022/08/02 08:30:56;;;;;;;;;;;;;;;;;;10501012;28;19925;-70
2022/08/02 08:35:58;;;;;;;;;;;;;;;;;;10500264;28;19925;-68
2022/08/02 08:41:00;;;;;;;;;;;;;;;;;;10499420;28;19928;-68
2022/08/02 08:46:02;;;;;;;;;;;;;;;;;;10499246;28;20290;-68
2022/08/02 08:51:05;;;;;;;;;;;;;;;;;;10481409;28;20375;-68
2022/08/02 08:56:07;;;;;;;;;;;;;;;;;;10499586;28;19931;-67
2022/08/02 09:01:10;;;;;;;;;;;;;;;;;;10499470;28;20015;-68
2022/08/02 09:06:13;;;;;;;;;;;;;;;;;;10499695;28;19967;-68
2022/08/02 09:11:15;;;;;;;;;;;;;;;;;;10498555;28;20290;-68
2022/08/02 09:16:17;;;;;;;;;;;;;;;;;;10498502;28;19924;-68
2022/08/02 09:21:19;;;;;;;;;;;;;;;;;;10498275;28;19947;-68
2022/08/02 09:26:21;;;;;;;;;;;;;;;;;;10498885;28;19925;-68
2022/08/02 09:31:23;;;;;;;;;;;;;;;;;;10498753;28;19924;-69
2022/08/02 09:36:25;;;;;;;;;;;;;;;;;;10498523;28;19924;-70
2022/08/02 09:41:27;;;;;;;;;;;;;;;;;;10498530;28;19925;-69
2022/08/02 09:46:30;;;;;;;;;;;;;;;;;;10497741;28;20376;-71
2022/08/02 09:51:33;;;;;;;;;;;;;;;;;;10501915;28;19928;-70
2022/08/02 09:56:35;;;;;;;;;;;;;;;;;;10506719;28;19931;-70
2022/08/02 10:01:37;;;;;;;;;;;;;;;;;;10505693;28;20398;-62
2022/08/02 10:06:40;;;;;;;;;;;;;;;;;;10505637;28;20291;-62
2022/08/02 10:11:42;;;;;;;;;;;;;;;;;;10506095;28;19935;-63
2022/08/02 10:16:44;;;;;;;;;;;;;;;;;;10505278;28;19929;-62
2022/08/02 10:21:46;;;;;;;;;;;;;;;;;;10504963;28;19925;-62
2022/08/02 10:26:48;;;;;;;;;;;;;;;;;;10505448;28;19935;-62
2022/08/02 10:31:50;;;;;;;;;;;;;;;;;;10505247;28;19930;-62
2022/08/02 10:36:52;;;;;;;;;;;;;;;;;;10504233;28;20379;-62
2022/08/02 10:41:54;;;;;;;;;;;;;;;;;;10504967;28;19924;-62
2022/08/02 10:46:56;;;;;;;;;;;;;;;;;;10503980;28;20287;-62
2022/08/02 10:51:58;;;;;;;;;;;;;;;;;;10504482;28;19925;-62
2022/08/02 10:57:00;;;;;;;;;;;;;;;;;;10503583;28;19941;-63
2022/08/02 11:02:03;;;;;;;;;;;;;;;;;;10502987;28;20390;-63
2022/08/02 11:07:05;;;;;;;;;;;;;;;;;;10503954;28;19924;-63
2022/08/02 11:12:08;;;;;;;;;;;;;;;;;;10503225;28;20368;-63
2022/08/02 11:17:10;;;;;;;;;;;;;;;;;;10502659;28;20445;-62
2022/08/02 11:22:15;;;;;;;;;;;;;;;;;;10502649;28;19951;-63
2022/08/02 11:27:17;;;;;;;;;;;;;;;;;;10503144;28;19932;-63
2022/08/02 11:32:19;;;;;;;;;;;;;;;;;;10502491;28;19924;-63
2022/08/02 11:37:21;;;;;;;;;;;;;;;;;;10502065;28;20257;-63
2022/08/02 11:42:23;;;;;;;;;;;;;;;;;;10501692;28;19925;-63
2022/08/02 11:47:25;;;;;;;;;;;;;;;;;;10501403;28;20287;-62
2022/08/02 11:52:27;;;;;;;;;;;;;;;;;;10501819;28;19924;-63
2022/08/02 11:57:29;;;;;;;;;;;;;;;;;;10501254;28;19925;-63
2022/08/02 12:02:51;;;;;;;;;;;;;;;;;;10501082;28;20372;-63
2022/08/02 12:07:53;;;;;;;;;;;;;;;;;;10501103;28;20015;-63
2022/08/02 12:12:55;;;;;;;;;;;;;;;;;;10499519;28;20402;-63
2022/08/02 12:23:18;;;;;;;;;;;;;;;;;;10500116;28;19924;-63
2022/08/02 12:28:21;;;;;;;;;;;;;;;;;;10500167;28;19925;-63
2022/08/02 12:33:23;;;;;;;;;;;;;;;;;;10500207;28;20011;-63
2022/08/02 12:38:25;;;;;;;;;;;;;;;;;;10500252;28;19925;-63
2022/08/02 12:43:27;;;;;;;;;;;;;;;;;;10500138;28;19932;-63
2022/08/02 12:48:29;;;;;;;;;;;;;;;;;;10499487;28;19932;-63
2022/08/02 12:53:37;;;;;;;;;;;;;;;;;;10499106;28;19931;-63
2022/08/02 12:58:39;;;;;;;;;;;;;;;;;;10499544;28;19924;-63
2022/08/02 13:03:41;;;;;;;;;;;;;;;;;;10499483;28;19928;-63
2022/08/02 13:09:03;;;;;;;;;;;;;;;;;;10498329;28;20416;-63
2022/08/02 13:14:06;;;;;;;;;;;;;;;;;;10498511;28;20380;-63
2022/08/02 13:19:08;;;;;;;;;;;;;;;;;;10498684;28;19931;-64
2022/08/02 13:24:11;;;;;;;;;;;;;;;;;;10498403;28;19924;-63
2022/08/02 13:29:28;;;;;;;;;;;;;;;;;;10490493;28;19925;-64
2022/08/02 13:34:30;;;;;;;;;;;;;;;;;;10498778;28;19931;-63
2022/08/02 13:39:32;;;;;;;;;;;;;;;;;;10498052;28;20383;-63
2022/08/02 13:44:34;;;;;;;;;;;;;;;;;;10498552;28;19924;-63
2022/08/02 13:49:36;;;;;;;;;;;;;;;;;;10498470;28;19925;-63
2022/08/02 13:54:52;;;;;;;;;;;;;;;;;;10498315;28;19935;-63
2022/08/02 13:59:54;;;;;;;;;;;;;;;;;;10497532;28;19932;-63
2022/08/02 14:05:00;;;;;;;;;;;;;;;;;;10498071;28;19925;-63
2022/08/02 14:10:02;;;;;;;;;;;;;;;;;;10497397;28;19929;-64
2022/08/02 14:15:04;;;;;;;;;;;;;;;;;;10497611;28;19924;-63
2022/08/02 14:20:06;;;;;;;;;;;;;;;;;;10497060;28;19947;-63
2022/08/02 14:25:10;;;;;;;;;;;;;;;;;;10496742;28;19924;-63
2022/08/02 14:30:12;;;;;;;;;;;;;;;;;;10490459;28;19928;-63
2022/08/02 14:35:14;;;;;;;;;;;;;;;;;;10492569;28;20433;-63
2022/08/02 14:40:16;;;;;;;;;;;;;;;;;;10504066;28;19925;-63
2022/08/02 14:45:32;;;;;;;;;;;;;;;;;;10503995;28;19924;-63
2022/08/02 14:50:41;;;;;;;;;;;;;;;;;;10503142;28;19924;-63
2022/08/02 14:55:43;;;;;;;;;;;;;;;;;;10502789;28;19930;-63
2022/08/02 15:00:45;;;;;;;;;;;;;;;;;;10498068;28;19924;-63
2022/08/02 15:05:47;;;;;;;;;;;;;;;;;;10499364;28;19925;-64
2022/08/02 15:10:50;;;;;;;;;;;;;;;;;;10503773;28;19924;-63
2022/08/02 15:15:52;;;;;;;;;;;;;;;;;;10500717;28;19935;-62
2022/08/02 15:20:54;;;;;;;;;;;;;;;;;;10503798;28;19931;-71
2022/08/02 15:25:58;;;;;;;;;;;;;;;;;;10502994;28;19924;-71
2022/08/02 15:31:00;;;;;;;;;;;;;;;;;;10502633;28;19925;-71
2022/08/02 15:36:02;;;;;;;;;;;;;;;;;;10502858;28;19944;-72
2022/08/02 15:41:04;;;;;;;;;;;;;;;;;;10484351;28;19924;-71
2022/08/02 15:46:07;;;;;;;;;;;;;;;;;;10502183;28;19931;-71
2022/08/02 15:51:09;;;;;;;;;;;;;;;;;;10500359;28;19925;-71
2022/08/02 15:56:11;;;;;;;;;;;;;;;;;;10501468;28;20386;-71
2022/08/02 16:01:14;;;;;;;;;;;;;;;;;;10501806;28;19931;-70
2022/08/02 16:06:16;;;;;;;;;;;;;;;;;;10501078;28;19925;-70
2022/08/02 16:11:18;;;;;;;;;;;;;;;;;;10500808;28;19924;-70
2022/08/02 16:16:20;;;;;;;;;;;;;;;;;;10500454;28;19925;-69
2022/08/02 16:21:23;;;;;;;;;;;;;;;;;;10482175;28;20322;-69
2022/08/02 16:26:28;;;;;;;;;;;;;;;;;;10500049;28;20024;-70
2022/08/02 16:31:30;;;;;;;;;;;;;;;;;;10531296;22;20378;-61
2022/08/02 16:36:32;;;;;;;;;;;;;;;;;;10542419;28;19935;-62
2022/08/02 16:41:34;;;;;;;;;;;;;;;;;;10542178;28;19931;-62
2022/08/02 16:46:52;;;;;;;;;;;;;;;;;;10541493;28;20450;-62
2022/08/02 16:51:54;;;;;;;;;;;;;;;;;;10541883;28;19931;-62
2022/08/02 16:56:56;;;;;;;;;;;;;;;;;;10541694;28;19931;-62
2022/08/02 17:01:58;;;;;;;;;;;;;;;;;;10540385;28;20276;-62
2022/08/02 17:07:20;;;;;;;;;;;;;;;;;;10540611;28;19932;-62
2022/08/02 17:12:42;;;;;;;;;;;;;;;;;;10537930;28;19931;-63
2022/08/02 17:17:44;;;;;;;;;;;;;;;;;;10540773;28;19924;-63
2022/08/02 17:22:46;;;;;;;;;;;;;;;;;;10540845;28;19925;-63
2022/08/02 17:27:48;;;;;;;;;;;;;;;;;;10540187;28;19951;-63
2022/08/02 17:32:54;;;;;;;;;;;;;;;;;;10519737;28;19929;-61
2022/08/02 17:37:58;;;;;;;;;;;;;;;;;;10498150;28;19928;-61
2022/08/02 17:43:01;;;;;;;;;;;;;;;;;;10498704;28;19932;-61
2022/08/02 17:48:03;;;;;;;;;;;;;;;;;;10498641;28;19924;-61
2022/08/02 17:53:06;;;;;;;;;;;;;;;;;;10516699;28;19931;-61
2022/08/02 17:58:08;;;;;;;;;;;;;;;;;;10540194;28;19932;-61
2022/08/02 18:03:13;;;;;;;;;;;;;;;;;;10499460;28;19932;-61
2022/08/02 18:08:15;;;;;;;;;;;;;;;;;;10497601;28;20291;-60
2022/08/02 18:13:18;;;;;;;;;;;;;;;;;;10486129;28;19924;-62
2022/08/02 18:18:20;;;;;;;;;;;;;;;;;;10505388;28;20273;-61
2022/08/02 18:23:30;;;;;;;;;;;;;;;;;;10505255;28;20291;-61
2022/08/02 18:28:32;;;;;;;;;;;;;;;;;;10532053;28;19928;-62
2022/08/02 18:33:34;;;;;;;;;;;;;;;;;;10522456;28;19963;-61
2022/08/02 18:38:56;;;;;;;;;;;;;;;;;;10519630;28;19931;-61
2022/08/02 18:44:00;;;;;;;;;;;;;;;;;;10546485;28;19931;-61
2022/08/02 18:49:02;;;;;;;;;;;;;;;;;;10545810;28;20390;-61
2022/08/02 18:54:08;;;;;;;;;;;;;;;;;;10527596;28;20286;-62
2022/08/02 18:59:10;;;;;;;;;;;;;;;;;;10505440;28;19924;-60
2022/08/02 19:04:12;;;;;;;;;;;;;;;;;;10504264;28;19928;-62
2022/08/02 19:09:14;;;;;;;;;;;;;;;;;;10503446;28;20301;-61
2022/08/02 19:14:16;;;;;;;;;;;;;;;;;;10504367;28;20021;-61
2022/08/02 19:19:25;;;;;;;;;;;;;;;;;;10503651;28;19932;-61
2022/08/02 19:24:50;;;;;;;;;;;;;;;;;;10542921;28;19931;-61
2022/08/02 19:29:52;;;;;;;;;;;;;;;;;;10544765;28;19958;-61
2022/08/02 19:34:54;;;;;;;;;;;;;;;;;;10542628;28;19928;-61
2022/08/02 19:39:58;;;;;;;;;;;;;;;;;;10544055;28;21573;-61
2022/08/02 19:45:01;;;;;;;;;;;;;;;;;;10543980;28;19924;-61
2022/08/02 19:50:03;;;;;;;;;;;;;;;;;;10520677;28;19935;-63
2022/08/02 19:55:05;;;;;;;;;;;;;;;;;;10503388;28;19977;-61
2022/08/02 20:00:27;;;;;;;;;;;;;;;;;;10501747;28;19924;-61
2022/08/02 20:05:29;;;;;;;;;;;;;;;;;;10501850;28;19924;-61
2022/08/02 20:10:32;;;;;;;;;;;;;;;;;;10501618;28;19932;-61
2022/08/02 20:15:34;;;;;;;;;;;;;;;;;;10504142;28;20024;-61
2022/08/02 20:20:56;;;;;;;;;;;;;;;;;;10542755;28;19928;-61
2022/08/02 20:25:58;;;;;;;;;;;;;;;;;;10523751;28;19924;-61
2022/08/02 20:31:02;;;;;;;;;;;;;;;;;;10540217;28;19924;-61
2022/08/02 20:36:08;;;;;;;;;;;;;;;;;;10541872;28;19981;-61
2022/08/02 20:41:10;;;;;;;;;;;;;;;;;;10541611;28;20287;-61
2022/08/02 20:46:12;;;;;;;;;;;;;;;;;;10518231;28;19931;-61
2022/08/02 20:51:14;;;;;;;;;;;;;;;;;;10500557;28;19924;-61
2022/08/02 20:56:16;;;;;;;;;;;;;;;;;;10499249;28;19928;-61
2022/08/02 21:01:18;;;;;;;;;;;;;;;;;;10498993;28;20265;-61
2022/08/02 21:06:22;;;;;;;;;;;;;;;;;;10526193;28;19924;-59
2022/08/02 21:11:24;;;;;;;;;;;;;;;;;;10539647;28;19924;-59
2022/08/02 21:16:34;;;;;;;;;;;;;;;;;;10541234;28;19932;-59
2022/08/02 21:21:36;;;;;;;;;;;;;;;;;;10541001;28;19924;-59
2022/08/02 21:26:39;;;;;;;;;;;;;;;;;;10540579;28;19924;-59
2022/08/02 21:31:41;;;;;;;;;;;;;;;;;;10538099;28;19924;-59
2022/08/02 21:36:43;;;;;;;;;;;;;;;;;;10540640;28;19928;-59
2022/08/02 21:41:45;;;;;;;;;;;;;;;;;;10515334;28;19932;-59
2022/08/02 21:46:48;;;;;;;;;;;;;;;;;;10502708;28;19970;-58
2022/08/02 21:51:51;;;;;;;;;;;;;;;;;;10492491;28;20011;-59
2022/08/02 21:56:53;;;;;;;;;;;;;;;;;;10506686;28;20291;-59
2022/08/02 22:01:55;;;;;;;;;;;;;;;;;;10506708;28;19924;-59
2022/08/02 22:06:58;;;;;;;;;;;;;;;;;;10517602;28;20036;-66
2022/08/02 22:12:00;;;;;;;;;;;;;;;;;;10514774;28;20298;-66
2022/08/02 22:17:02;;;;;;;;;;;;;;;;;;10506200;28;19932;-66
2022/08/02 22:22:09;;;;;;;;;;;;;;;;;;10505305;28;19928;-66
2022/08/02 22:27:11;;;;;;;;;;;;;;;;;;10501647;28;19924;-67
2022/08/02 22:34:04;;;;;;;;;;;;;;;;;;10545883;28;19946;-66
2022/08/02 22:37:36;;;;;;;;;;;;;;;;;;10514095;28;19925;-67
2022/08/02 22:42:58;;;;;;;;;;;;;;;;;;10504540;28;19925;-67
2022/08/02 22:48:01;;;;;;;;;;;;;;;;;;10526721;28;20298;-67
2022/08/02 22:53:03;;;;;;;;;;;;;;;;;;10545018;28;19928;-67
2022/08/02 22:58:05;;;;;;;;;;;;;;;;;;10545820;28;19930;-66
2022/08/02 23:03:07;;;;;;;;;;;;;;;;;;10546273;28;19924;-66
2022/08/02 23:08:09;;;;;;;;;;;;;;;;;;10507893;28;19991;-66
2022/08/02 23:13:11;;;;;;;;;;;;;;;;;;10526944;28;19924;-66
2022/08/02 23:23:34;;;;;;;;;;;;;;;;;;10518227;28;19924;-67
2022/08/02 23:28:36;;;;;;;;;;;;;;;;;;10484907;28;20386;-66
2022/08/02 23:33:38;;;;;;;;;;;;;;;;;;10528427;28;19924;-67
2022/08/02 23:39:00;;;;;;;;;;;;;;;;;;10544806;28;19978;-67
2022/08/02 23:44:02;;;;;;;;;;;;;;;;;;10514066;28;19924;-66
2022/08/02 23:49:14;;;;;;;;;;;;;;;;;;10502048;28;19991;-66
2022/08/02 23:54:16;;;;;;;;;;;;;;;;;;10504629;28;19924;-66
2022/08/02 23:59:19;;;;;;;;;;;;;;;;;;10503300;28;20275;-64
